createdAt,value
2023-03-18T00:00:25.596Z,12.90
2023-03-18T00:02:52.687Z,12.80
2023-03-18T00:05:19.944Z,12.70
2023-03-18T00:07:47.533Z,12.70
2023-03-18T00:10:14.615Z,12.60
2023-03-18T00:12:42.103Z,12.50
2023-03-18T00:15:10.992Z,12.40
2023-03-18T00:17:38.087Z,12.30
2023-03-18T00:20:06.800Z,12.20
2023-03-18T00:22:35.830Z,12.10
2023-03-18T00:25:03.769Z,12.00
2023-03-18T00:27:30.524Z,11.80
2023-03-18T00:29:58.361Z,11.70
2023-03-18T00:32:28.965Z,11.60
2023-03-18T00:34:56.828Z,11.60
2023-03-18T00:37:31.492Z,11.50
2023-03-18T00:40:06.010Z,11.40
2023-03-18T00:42:47.399Z,11.30
2023-03-18T00:45:17.023Z,11.30
2023-03-18T00:47:44.579Z,11.30
2023-03-18T00:50:12.435Z,11.20
2023-03-18T00:52:39.565Z,11.10
2023-03-18T00:55:07.374Z,11.10
2023-03-18T00:57:35.356Z,11.10
2023-03-18T01:00:06.555Z,11.00
2023-03-18T01:02:34.331Z,11.00
2023-03-18T01:05:02.457Z,10.90
2023-03-18T01:07:29.435Z,10.90
2023-03-18T01:09:56.118Z,10.90
2023-03-18T01:12:24.096Z,10.80
2023-03-18T01:14:50.995Z,10.80
2023-03-18T01:17:17.677Z,10.80
2023-03-18T01:19:44.484Z,10.80
2023-03-18T01:22:11.150Z,10.80
2023-03-18T01:24:44.767Z,10.80
2023-03-18T01:27:12.479Z,10.90
2023-03-18T01:29:40.638Z,10.80
2023-03-18T01:32:13.632Z,10.80
2023-03-18T01:34:41.485Z,10.90
2023-03-18T01:37:08.460Z,10.80
2023-03-18T01:39:37.969Z,10.80
2023-03-18T01:42:08.426Z,10.70
2023-03-18T01:44:35.258Z,10.80
2023-03-18T01:47:03.125Z,10.70
2023-03-18T01:49:44.924Z,10.70
2023-03-18T01:52:32.429Z,10.70
2023-03-18T01:55:02.916Z,10.70
2023-03-18T01:57:32.704Z,10.70
2023-03-18T02:00:00.603Z,10.70
2023-03-18T02:02:28.968Z,10.70
2023-03-18T02:05:01.723Z,10.60
2023-03-18T02:07:31.590Z,10.60
2023-03-18T02:10:02.839Z,10.60
2023-03-18T02:12:33.463Z,10.60
2023-03-18T02:15:03.693Z,10.60
2023-03-18T02:17:34.241Z,10.60
2023-03-18T02:20:10.406Z,10.60
2023-03-18T02:22:45.374Z,10.60
2023-03-18T02:25:26.147Z,10.60
2023-03-18T02:28:00.259Z,10.60
2023-03-18T02:30:52.341Z,10.60
2023-03-18T02:33:21.814Z,10.70
2023-03-18T02:35:54.217Z,10.60
2023-03-18T02:38:21.402Z,10.70
2023-03-18T02:40:49.547Z,10.70
2023-03-18T02:43:30.311Z,10.70
2023-03-18T02:46:25.642Z,10.70
2023-03-18T02:48:53.909Z,10.70
2023-03-18T02:51:20.988Z,10.70
2023-03-18T02:53:48.255Z,10.70
2023-03-18T02:56:16.006Z,10.70
2023-03-18T02:58:43.686Z,10.70
2023-03-18T03:01:11.819Z,10.80
2023-03-18T03:03:40.011Z,10.80
2023-03-18T03:06:09.026Z,10.90
2023-03-18T03:08:35.927Z,10.90
2023-03-18T03:11:05.181Z,10.90
2023-03-18T03:13:35.598Z,10.90
2023-03-18T03:16:02.732Z,10.90
2023-03-18T03:18:30.377Z,10.90
2023-03-18T03:20:57.073Z,10.90
2023-03-18T03:23:24.061Z,10.90
2023-03-18T03:25:50.977Z,11.00
2023-03-18T03:28:20.151Z,11.00
2023-03-18T03:30:47.035Z,11.00
2023-03-18T03:33:15.573Z,11.00
2023-03-18T03:35:42.470Z,11.00
2023-03-18T03:38:10.471Z,11.00
2023-03-18T03:40:37.612Z,11.00
2023-03-18T03:43:04.709Z,11.10
2023-03-18T03:45:32.434Z,11.00
2023-03-18T03:48:00.260Z,11.00
2023-03-18T03:50:27.327Z,11.00
2023-03-18T03:52:54.224Z,10.90
2023-03-18T03:55:22.348Z,10.90
2023-03-18T03:57:51.256Z,11.00
2023-03-18T04:00:21.466Z,11.00
2023-03-18T04:02:51.059Z,11.10
2023-03-18T04:05:22.565Z,11.10
2023-03-18T04:07:50.494Z,11.10
2023-03-18T04:10:20.618Z,11.10
2023-03-18T04:12:47.858Z,11.10
2023-03-18T04:15:17.210Z,11.20
2023-03-18T04:17:46.091Z,11.20
2023-03-18T04:20:17.146Z,11.20
2023-03-18T04:22:45.181Z,11.10
2023-03-18T04:25:14.661Z,11.00
2023-03-18T04:27:41.822Z,11.00
2023-03-18T04:30:12.141Z,11.00
2023-03-18T04:32:57.164Z,10.90
2023-03-18T04:35:24.109Z,10.90
2023-03-18T04:37:51.573Z,10.80
2023-03-18T04:40:19.949Z,10.80
2023-03-18T04:42:47.878Z,10.80
2023-03-18T04:45:16.903Z,10.70
2023-03-18T04:47:45.221Z,10.70
2023-03-18T04:50:14.580Z,10.70
2023-03-18T04:52:43.602Z,10.70
2023-03-18T04:55:17.933Z,10.60
2023-03-18T04:57:45.653Z,10.60
2023-03-18T05:00:23.731Z,10.50
2023-03-18T05:02:56.635Z,10.50
2023-03-18T05:05:25.973Z,10.60
2023-03-18T05:07:53.374Z,10.60
2023-03-18T05:10:21.438Z,10.60
2023-03-18T05:12:48.683Z,10.60
2023-03-18T05:15:19.416Z,10.60
2023-03-18T05:17:52.902Z,10.60
2023-03-18T05:20:20.051Z,10.60
2023-03-18T05:22:47.787Z,10.60
2023-03-18T05:25:28.828Z,10.60
2023-03-18T05:27:57.704Z,10.60
2023-03-18T05:30:39.278Z,10.60
2023-03-18T05:33:09.833Z,10.60
2023-03-18T05:35:53.289Z,10.70
2023-03-18T05:38:25.199Z,10.70
2023-03-18T05:40:52.324Z,10.70
2023-03-18T05:43:29.079Z,10.70
2023-03-18T05:45:58.073Z,10.70
2023-03-18T05:48:37.621Z,10.80
2023-03-18T05:51:06.290Z,10.80
2023-03-18T05:53:35.741Z,10.80
2023-03-18T05:56:18.717Z,10.80
2023-03-18T05:58:50.012Z,10.70
2023-03-18T06:01:26.730Z,10.80
2023-03-18T06:03:55.140Z,10.80
2023-03-18T06:06:22.016Z,10.80
2023-03-18T06:08:48.853Z,10.80
2023-03-18T06:11:15.758Z,10.80
2023-03-18T06:13:43.395Z,10.80
2023-03-18T06:16:10.814Z,10.90
2023-03-18T06:18:38.231Z,10.90
2023-03-18T06:21:06.422Z,10.90
2023-03-18T06:23:33.774Z,10.90
2023-03-18T06:26:00.890Z,11.00
2023-03-18T06:28:33.571Z,11.00
2023-03-18T06:31:05.975Z,11.10
2023-03-18T06:33:32.881Z,11.10
2023-03-18T06:36:02.307Z,11.20
2023-03-18T06:38:29.450Z,11.30
2023-03-18T06:40:58.611Z,11.30
2023-03-18T06:43:27.046Z,11.30
2023-03-18T06:45:54.269Z,11.40
2023-03-18T06:48:21.219Z,11.40
2023-03-18T06:50:49.729Z,11.40
2023-03-18T06:53:29.191Z,11.50
2023-03-18T06:55:56.808Z,11.50
2023-03-18T06:58:27.068Z,11.60
2023-03-18T07:01:01.765Z,11.90
2023-03-18T07:03:35.749Z,12.10
2023-03-18T07:06:04.449Z,12.40
2023-03-18T07:08:32.258Z,12.40
2023-03-18T07:10:59.235Z,12.30
2023-03-18T07:13:26.738Z,12.20
2023-03-18T07:15:56.411Z,12.10
2023-03-18T07:18:24.196Z,12.10
2023-03-18T07:20:50.943Z,12.00
2023-03-18T07:23:17.674Z,12.00
2023-03-18T07:25:44.720Z,11.90
2023-03-18T07:28:11.730Z,11.90
2023-03-18T07:30:39.667Z,11.90
2023-03-18T07:33:06.474Z,11.90
2023-03-18T07:35:33.660Z,11.90
2023-03-18T07:38:00.646Z,11.90
2023-03-18T07:40:27.355Z,11.90
2023-03-18T07:42:54.085Z,12.10
2023-03-18T07:45:20.865Z,12.10
2023-03-18T07:47:50.216Z,12.10
2023-03-18T07:50:17.230Z,12.10
2023-03-18T07:52:44.672Z,12.10
2023-03-18T07:55:12.286Z,12.20
2023-03-18T07:57:39.314Z,12.30
2023-03-18T08:00:08.580Z,12.40
2023-03-18T08:02:42.209Z,12.40
2023-03-18T08:05:09.625Z,12.40
2023-03-18T08:07:37.018Z,12.40
2023-03-18T08:10:04.310Z,12.40
2023-03-18T08:12:49.011Z,12.30
2023-03-18T08:15:18.993Z,12.40
2023-03-18T08:17:45.971Z,12.40
2023-03-18T08:20:13.051Z,12.40
2023-03-18T08:22:39.778Z,12.50
2023-03-18T08:25:07.317Z,12.60
2023-03-18T08:27:34.055Z,12.50
2023-03-18T08:30:03.352Z,12.60
2023-03-18T08:32:30.703Z,12.60
2023-03-18T08:34:57.859Z,12.60
2023-03-18T08:37:24.724Z,12.70
2023-03-18T08:39:51.446Z,12.90
2023-03-18T08:42:19.050Z,12.90
2023-03-18T08:44:45.825Z,13.00
2023-03-18T08:47:12.672Z,13.30
2023-03-18T08:49:39.447Z,13.50
2023-03-18T08:52:06.821Z,13.60
2023-03-18T08:54:33.518Z,13.60
2023-03-18T08:57:00.664Z,13.30
2023-03-18T08:59:27.408Z,13.20
2023-03-18T09:01:54.056Z,13.20
2023-03-18T09:04:20.836Z,13.20
2023-03-18T09:06:48.856Z,13.10
2023-03-18T09:09:15.735Z,13.00
2023-03-18T09:11:42.470Z,12.90
2023-03-18T09:14:09.227Z,12.80
2023-03-18T09:16:36.271Z,12.90
2023-03-18T09:19:03.645Z,12.90
2023-03-18T09:21:31.415Z,12.90
2023-03-18T09:23:59.050Z,13.00
2023-03-18T09:26:25.859Z,13.10
2023-03-18T09:28:52.654Z,13.10
2023-03-18T09:31:19.584Z,13.10
2023-03-18T09:33:47.648Z,13.20
2023-03-18T09:36:14.744Z,13.50
2023-03-18T09:38:42.478Z,13.90
2023-03-18T09:41:33.580Z,14.60
2023-03-18T09:44:10.011Z,15.60
2023-03-18T09:47:10.693Z,16.20
2023-03-18T09:50:06.709Z,16.30
2023-03-18T09:52:37.332Z,15.90
2023-03-18T09:55:15.265Z,15.90
2023-03-18T09:57:47.470Z,15.70
2023-03-18T10:00:34.034Z,15.40
2023-03-18T10:03:50.256Z,15.00
2023-03-18T10:06:23.268Z,14.70
2023-03-18T10:09:14.451Z,14.50
2023-03-18T10:11:42.704Z,14.40
2023-03-18T10:14:22.395Z,14.30
2023-03-18T10:16:53.412Z,14.20
2023-03-18T10:19:20.153Z,14.40
2023-03-18T10:22:22.075Z,14.60
2023-03-18T10:25:07.359Z,14.70
2023-03-18T10:27:55.730Z,15.10
2023-03-18T10:30:37.840Z,15.40
2023-03-18T10:33:41.516Z,15.50
2023-03-18T10:36:37.977Z,15.60
2023-03-18T10:39:12.895Z,15.40
2023-03-18T10:41:40.420Z,15.40
2023-03-18T10:44:22.516Z,15.80
2023-03-18T10:47:23.416Z,15.80
2023-03-18T10:50:02.494Z,16.00
2023-03-18T10:52:40.378Z,16.70
2023-03-18T10:55:17.223Z,17.00
2023-03-18T10:57:44.534Z,17.50
2023-03-18T11:00:35.289Z,17.00
2023-03-18T11:03:05.612Z,16.90
2023-03-18T11:05:35.970Z,16.70
2023-03-18T11:08:08.961Z,16.40
2023-03-18T11:10:45.778Z,16.80
2023-03-18T11:13:20.541Z,17.00
2023-03-18T11:15:51.469Z,17.10
2023-03-18T11:18:23.009Z,17.40
2023-03-18T11:21:04.667Z,17.30
2023-03-18T11:23:48.360Z,17.20
2023-03-18T11:26:24.793Z,17.40
2023-03-18T11:28:57.514Z,17.40
2023-03-18T11:31:24.405Z,17.30
2023-03-18T11:33:58.862Z,17.10
2023-03-18T11:36:27.912Z,17.00
2023-03-18T11:38:58.937Z,17.00
2023-03-18T11:41:30.128Z,16.90
2023-03-18T11:44:01.909Z,16.70
2023-03-18T11:46:52.250Z,17.10
2023-03-18T11:49:24.266Z,17.20
2023-03-18T11:52:27.057Z,17.30
2023-03-18T11:55:15.957Z,17.80
2023-03-18T11:58:11.716Z,17.20
2023-03-18T12:00:52.558Z,17.40
2023-03-18T12:03:31.425Z,17.70
2023-03-18T12:06:14.546Z,18.00
2023-03-18T12:09:11.297Z,17.70
2023-03-18T12:12:15.603Z,18.00
2023-03-18T12:14:45.910Z,17.90
2023-03-18T12:17:15.344Z,17.90
2023-03-18T12:20:05.557Z,18.20
2023-03-18T12:23:04.311Z,18.30
2023-03-18T12:26:08.419Z,18.60
2023-03-18T12:28:42.542Z,18.50
2023-03-18T12:31:18.104Z,18.30
2023-03-18T12:34:02.947Z,18.10
2023-03-18T12:36:35.936Z,18.10
2023-03-18T12:39:17.828Z,18.50
2023-03-18T12:42:01.417Z,18.40
2023-03-18T12:45:21.829Z,18.00
2023-03-18T12:47:57.693Z,17.50
2023-03-18T12:50:28.313Z,17.50
2023-03-18T12:53:04.128Z,17.50
2023-03-18T12:55:39.620Z,17.70
2023-03-18T12:58:14.205Z,18.20
2023-03-18T13:00:57.146Z,18.70
2023-03-18T13:03:33.006Z,19.00
2023-03-18T13:06:05.420Z,19.50
2023-03-18T13:09:04.246Z,19.60
2023-03-18T13:12:02.025Z,19.40
2023-03-18T13:14:33.813Z,19.70
2023-03-18T13:17:01.290Z,19.60
2023-03-18T13:19:28.629Z,19.10
2023-03-18T13:22:15.368Z,19.80
2023-03-18T13:24:56.553Z,20.60
2023-03-18T13:27:53.167Z,21.20
2023-03-18T13:30:48.658Z,21.50
2023-03-18T13:33:41.237Z,20.90
2023-03-18T13:36:28.615Z,21.10
2023-03-18T13:39:22.654Z,21.40
2023-03-18T13:42:10.684Z,21.40
2023-03-18T13:44:43.818Z,21.00
2023-03-18T13:47:17.866Z,21.00
2023-03-18T13:49:45.637Z,21.50
2023-03-18T13:52:28.274Z,21.80
2023-03-18T13:55:01.296Z,21.40
2023-03-18T13:57:28.291Z,20.70
2023-03-18T14:00:23.801Z,19.90
2023-03-18T14:03:13.992Z,19.00
2023-03-18T14:05:42.462Z,18.60
2023-03-18T14:08:30.796Z,18.60
2023-03-18T14:11:22.535Z,19.00
2023-03-18T14:13:54.763Z,19.00
2023-03-18T14:16:48.003Z,18.90
2023-03-18T14:19:22.102Z,18.60
2023-03-18T14:21:53.515Z,18.60
2023-03-18T14:24:21.706Z,18.80
2023-03-18T14:27:18.456Z,18.90
2023-03-18T14:29:47.650Z,18.70
2023-03-18T14:32:32.862Z,18.60
2023-03-18T14:35:04.673Z,18.50
2023-03-18T14:37:32.572Z,18.20
2023-03-18T14:40:27.589Z,18.00
2023-03-18T14:43:03.551Z,17.90
2023-03-18T14:45:44.862Z,17.90
2023-03-18T14:48:19.144Z,17.70
2023-03-18T14:50:49.043Z,17.50
2023-03-18T14:53:40.631Z,17.30
2023-03-18T14:56:24.843Z,17.10
2023-03-18T14:58:56.345Z,17.20
2023-03-18T15:01:28.114Z,17.40
2023-03-18T15:03:55.924Z,17.40
2023-03-18T15:06:26.631Z,17.50
2023-03-18T15:09:01.936Z,17.30
2023-03-18T15:11:30.199Z,17.20
2023-03-18T15:14:00.106Z,17.10
2023-03-18T15:16:30.606Z,17.00
2023-03-18T15:18:57.377Z,17.30
2023-03-18T15:21:28.763Z,17.40
2023-03-18T15:24:00.128Z,17.30
2023-03-18T15:26:33.871Z,17.40
2023-03-18T15:29:15.439Z,17.60
2023-03-18T15:31:45.118Z,17.80
2023-03-18T15:34:23.005Z,18.00
2023-03-18T15:36:55.473Z,18.50
2023-03-18T15:39:36.065Z,18.50
2023-03-18T15:42:13.905Z,18.90
2023-03-18T15:44:42.974Z,18.80
2023-03-18T15:47:21.894Z,18.80
2023-03-18T15:49:55.827Z,18.40
2023-03-18T15:52:31.265Z,17.60
2023-03-18T15:54:58.038Z,17.30
2023-03-18T15:57:38.248Z,17.50
2023-03-18T16:00:08.732Z,17.80
2023-03-18T16:02:38.956Z,18.00
2023-03-18T16:05:16.707Z,18.30
2023-03-18T16:07:43.562Z,18.80
2023-03-18T16:10:11.027Z,19.20
2023-03-18T16:12:39.560Z,19.20
2023-03-18T16:15:07.673Z,18.50
2023-03-18T16:17:34.358Z,17.60
2023-03-18T16:20:04.063Z,17.50
2023-03-18T16:22:33.305Z,17.40
2023-03-18T16:25:01.112Z,17.10
2023-03-18T16:27:39.397Z,17.10
2023-03-18T16:30:15.988Z,17.00
2023-03-18T16:32:42.974Z,16.70
2023-03-18T16:35:15.676Z,16.50
2023-03-18T16:37:44.574Z,16.40
2023-03-18T16:40:31.666Z,16.40
2023-03-18T16:42:58.694Z,16.40
2023-03-18T16:45:30.443Z,16.30
2023-03-18T16:48:04.965Z,16.30
2023-03-18T16:50:36.450Z,16.10
2023-03-18T16:53:03.591Z,15.90
2023-03-18T16:55:30.509Z,15.70
2023-03-18T16:57:59.901Z,15.60
2023-03-18T17:00:32.779Z,15.40
2023-03-18T17:03:01.016Z,15.40
2023-03-18T17:05:28.759Z,15.30
2023-03-18T17:07:55.872Z,15.10
2023-03-18T17:10:24.842Z,15.00
2023-03-18T17:12:56.282Z,14.90
2023-03-18T17:15:28.566Z,14.80
2023-03-18T17:17:58.158Z,14.70
2023-03-18T17:20:27.015Z,14.70
2023-03-18T17:22:54.336Z,14.50
2023-03-18T17:25:22.191Z,14.30
2023-03-18T17:27:56.705Z,14.20
2023-03-18T17:30:35.541Z,14.20
2023-03-18T17:33:04.365Z,14.20
2023-03-18T17:35:32.213Z,14.20
2023-03-18T17:37:59.188Z,14.10
2023-03-18T17:40:29.369Z,14.20
2023-03-18T17:42:56.477Z,14.20
2023-03-18T17:45:27.927Z,14.30
2023-03-18T17:48:01.274Z,14.30
2023-03-18T17:50:28.043Z,14.30
2023-03-18T17:52:54.890Z,14.30
2023-03-18T17:55:24.027Z,14.20
2023-03-18T17:57:50.978Z,14.20
2023-03-18T18:00:21.274Z,14.30
2023-03-18T18:02:48.818Z,14.30
2023-03-18T18:05:21.228Z,14.30
2023-03-18T18:07:48.738Z,14.40
2023-03-18T18:10:19.088Z,14.30
2023-03-18T18:12:49.622Z,14.30
2023-03-18T18:15:20.161Z,14.20
2023-03-18T18:17:48.446Z,14.20
2023-03-18T18:20:16.807Z,14.20
2023-03-18T18:22:48.272Z,13.80
2023-03-18T18:25:21.610Z,13.30
2023-03-18T18:27:49.637Z,12.80
2023-03-18T18:30:18.975Z,12.30
2023-03-18T18:32:45.957Z,12.10
2023-03-18T18:35:15.725Z,12.00
2023-03-18T18:37:42.864Z,11.90
2023-03-18T18:40:12.034Z,11.70
2023-03-18T18:42:40.899Z,11.70
2023-03-18T18:45:19.215Z,11.70
2023-03-18T18:47:45.908Z,11.70
2023-03-18T18:50:19.482Z,11.70
2023-03-18T18:52:47.241Z,11.70
2023-03-18T18:55:14.130Z,11.50
2023-03-18T18:57:42.789Z,11.50
2023-03-18T19:00:20.629Z,11.50
2023-03-18T19:02:50.489Z,11.50
2023-03-18T19:05:18.578Z,11.50
2023-03-18T19:07:46.397Z,11.50
2023-03-18T19:10:15.297Z,11.50
2023-03-18T19:12:44.200Z,11.50
2023-03-18T19:15:14.086Z,11.60
2023-03-18T19:17:43.339Z,11.50
2023-03-18T19:20:30.540Z,11.40
2023-03-18T19:22:57.578Z,11.30
2023-03-18T19:25:25.761Z,11.50
2023-03-18T19:27:54.061Z,11.50
2023-03-18T19:30:23.365Z,11.50
2023-03-18T19:32:51.077Z,11.30
2023-03-18T19:35:17.904Z,11.30
2023-03-18T19:37:47.117Z,11.20
2023-03-18T19:40:20.717Z,11.10
2023-03-18T19:42:47.544Z,11.10
2023-03-18T19:45:14.825Z,11.00
2023-03-18T19:47:42.532Z,11.00
2023-03-18T19:50:20.283Z,11.00
2023-03-18T19:52:47.197Z,11.00
2023-03-18T19:55:15.720Z,11.00
2023-03-18T19:57:48.113Z,11.00
2023-03-18T20:00:24.149Z,11.10
2023-03-18T20:02:51.009Z,11.30
2023-03-18T20:05:23.521Z,11.30
2023-03-18T20:07:50.638Z,11.30
2023-03-18T20:10:19.143Z,11.30
2023-03-18T20:12:48.915Z,11.30
2023-03-18T20:15:18.787Z,11.20
2023-03-18T20:17:47.733Z,11.10
2023-03-18T20:20:23.817Z,11.10
2023-03-18T20:23:01.050Z,11.00
2023-03-18T20:25:41.358Z,11.00
2023-03-18T20:28:13.927Z,10.90
2023-03-18T20:30:41.413Z,10.80
2023-03-18T20:33:08.895Z,10.80
2023-03-18T20:35:38.911Z,10.80
2023-03-18T20:38:28.344Z,10.70
2023-03-18T20:40:55.664Z,10.70
2023-03-18T20:43:24.295Z,10.70
2023-03-18T20:45:52.284Z,10.70
2023-03-18T20:48:20.166Z,10.70
2023-03-18T20:50:46.982Z,10.70
2023-03-18T20:53:21.722Z,10.70
2023-03-18T20:55:49.514Z,10.70
2023-03-18T20:58:18.949Z,10.70
2023-03-18T21:00:46.605Z,10.60
2023-03-18T21:03:34.664Z,10.60
2023-03-18T21:06:04.011Z,10.60
2023-03-18T21:08:31.778Z,10.60
2023-03-18T21:11:01.852Z,10.60
2023-03-18T21:13:35.425Z,10.60
2023-03-18T21:16:04.335Z,10.60
2023-03-18T21:18:31.164Z,10.60
2023-03-18T21:20:58.177Z,10.50
2023-03-18T21:23:24.907Z,10.50
2023-03-18T21:25:53.224Z,10.50
2023-03-18T21:28:22.053Z,10.50
2023-03-18T21:30:51.689Z,10.40
2023-03-18T21:33:35.041Z,10.40
2023-03-18T21:36:02.571Z,10.30
2023-03-18T21:38:34.923Z,10.30
2023-03-18T21:41:02.102Z,10.30
2023-03-18T21:43:40.391Z,10.20
2023-03-18T21:46:12.549Z,10.20
2023-03-18T21:48:39.553Z,10.10
2023-03-18T21:51:07.603Z,10.10
2023-03-18T21:53:34.578Z,10.00
2023-03-18T21:56:01.493Z,10.00
2023-03-18T21:58:28.487Z,9.90
2023-03-18T22:00:59.577Z,9.90
2023-03-18T22:03:29.168Z,9.90
2023-03-18T22:05:57.424Z,9.90
2023-03-18T22:08:25.413Z,9.90
2023-03-18T22:10:52.907Z,9.90
2023-03-18T22:13:24.702Z,9.90
2023-03-18T22:15:56.647Z,9.90
2023-03-18T22:18:23.787Z,9.90
2023-03-18T22:20:51.511Z,9.90
2023-03-18T22:23:27.559Z,9.90
2023-03-18T22:25:56.273Z,9.90
2023-03-18T22:28:24.396Z,9.80
2023-03-18T22:30:55.034Z,9.80
2023-03-18T22:33:26.419Z,9.80
2023-03-18T22:35:53.547Z,9.80
2023-03-18T22:38:22.282Z,9.80
2023-03-18T22:40:51.783Z,9.80
2023-03-18T22:43:27.612Z,9.70
2023-03-18T22:45:54.791Z,9.70
2023-03-18T22:48:21.766Z,9.60
2023-03-18T22:50:48.980Z,9.60
2023-03-18T22:53:24.280Z,9.50
2023-03-18T22:55:53.696Z,9.40
2023-03-18T22:58:24.923Z,9.40
2023-03-18T23:00:52.526Z,9.30
2023-03-18T23:03:21.179Z,9.20
2023-03-18T23:05:50.349Z,9.20
2023-03-18T23:08:18.099Z,9.20
2023-03-18T23:10:45.762Z,9.20
2023-03-18T23:13:28.421Z,9.20
2023-03-18T23:15:55.813Z,9.20
2023-03-18T23:18:23.643Z,9.20
2023-03-18T23:20:51.668Z,9.20
2023-03-18T23:23:20.876Z,9.20
2023-03-18T23:25:49.131Z,9.00
2023-03-18T23:28:16.056Z,9.00
2023-03-18T23:30:45.879Z,9.00
2023-03-18T23:33:12.639Z,8.90
2023-03-18T23:35:39.432Z,8.90
2023-03-18T23:38:06.470Z,8.80
2023-03-18T23:40:33.683Z,8.80
2023-03-18T23:43:00.692Z,8.70
2023-03-18T23:45:28.035Z,8.70
2023-03-18T23:47:56.274Z,8.70
2023-03-18T23:50:23.974Z,8.60
2023-03-18T23:52:50.869Z,8.70
2023-03-18T23:55:33.471Z,8.70
2023-03-18T23:58:01.335Z,8.70
